createdAt,value
2022-09-28T00:00:30.358Z,9.91
2022-09-28T00:02:57.555Z,9.90
2022-09-28T00:05:26.911Z,9.89
2022-09-28T00:07:54.206Z,9.88
2022-09-28T00:10:23.044Z,9.89
2022-09-28T00:12:52.118Z,9.82
2022-09-28T00:15:18.594Z,9.95
2022-09-28T00:17:45.044Z,9.90
2022-09-28T00:20:12.075Z,9.66
2022-09-28T00:22:38.809Z,9.73
2022-09-28T00:25:06.194Z,9.68
2022-09-28T00:27:32.640Z,9.62
2022-09-28T00:29:59.439Z,9.64
2022-09-28T00:32:26.651Z,9.77
2022-09-28T00:34:53.174Z,9.62
2022-09-28T00:37:19.966Z,9.37
2022-09-28T00:39:47.890Z,9.53
2022-09-28T00:42:14.570Z,9.50
2022-09-28T00:44:47.945Z,9.66
2022-09-28T00:47:20.192Z,9.73
2022-09-28T00:49:46.618Z,9.73
2022-09-28T00:52:15.189Z,9.73
2022-09-28T00:54:43.293Z,9.51
2022-09-28T00:57:09.750Z,9.29
2022-09-28T00:59:36.327Z,9.28
2022-09-28T01:02:03.004Z,9.36
2022-09-28T01:04:30.205Z,9.22
2022-09-28T01:06:57.885Z,9.34
2022-09-28T01:09:25.443Z,9.41
2022-09-28T01:11:51.995Z,9.35
2022-09-28T01:14:19.246Z,9.21
2022-09-28T01:17:12.096Z,9.32
2022-09-28T01:20:06.486Z,9.35
2022-09-28T01:22:34.808Z,9.31
2022-09-28T01:25:09.786Z,9.25
2022-09-28T01:27:41.810Z,9.15
2022-09-28T01:30:10.242Z,9.28
2022-09-28T01:32:50.337Z,9.25
2022-09-28T01:35:37.958Z,9.29
2022-09-28T01:38:04.374Z,9.25
2022-09-28T01:40:32.357Z,9.37
2022-09-28T01:43:13.643Z,9.21
2022-09-28T01:45:45.745Z,9.22
2022-09-28T01:48:15.405Z,9.11
2022-09-28T01:50:44.065Z,9.16
2022-09-28T01:53:20.525Z,9.03
2022-09-28T01:55:50.249Z,9.05
2022-09-28T01:58:26.898Z,9.07
2022-09-28T02:00:57.047Z,8.99
2022-09-28T02:03:25.721Z,9.05
2022-09-28T02:06:02.098Z,9.07
2022-09-28T02:08:46.802Z,9.12
2022-09-28T02:11:14.929Z,9.21
2022-09-28T02:13:48.546Z,9.24
2022-09-28T02:16:34.095Z,9.00
2022-09-28T02:19:01.080Z,8.80
2022-09-28T02:21:47.932Z,8.85
2022-09-28T02:24:21.245Z,8.89
2022-09-28T02:26:49.861Z,8.80
2022-09-28T02:29:16.943Z,8.85
2022-09-28T02:31:43.779Z,8.94
2022-09-28T02:34:10.454Z,8.93
2022-09-28T02:36:36.996Z,8.82
2022-09-28T02:39:03.630Z,8.97
2022-09-28T02:41:30.029Z,8.84
2022-09-28T02:44:14.686Z,8.97
2022-09-28T02:46:58.758Z,8.98
2022-09-28T02:49:46.305Z,8.70
2022-09-28T02:52:21.646Z,8.64
2022-09-28T02:54:50.846Z,8.68
2022-09-28T02:57:34.418Z,8.47
2022-09-28T03:00:10.486Z,8.51
2022-09-28T03:02:48.377Z,8.51
2022-09-28T03:05:18.131Z,8.40
2022-09-28T03:08:02.143Z,8.20
2022-09-28T03:10:47.607Z,8.49
2022-09-28T03:13:16.415Z,8.65
2022-09-28T03:15:48.575Z,8.77
2022-09-28T03:18:16.800Z,8.89
2022-09-28T03:20:43.422Z,8.93
2022-09-28T03:23:24.337Z,8.79
2022-09-28T03:25:52.126Z,8.80
2022-09-28T03:28:18.638Z,8.50
2022-09-28T03:30:45.375Z,8.48
2022-09-28T03:33:12.039Z,8.43
2022-09-28T03:35:38.565Z,8.32
2022-09-28T03:38:05.004Z,8.39
2022-09-28T03:40:34.107Z,8.57
2022-09-28T03:43:01.248Z,8.52
2022-09-28T03:45:27.867Z,8.41
2022-09-28T03:47:54.439Z,8.39
2022-09-28T03:50:20.898Z,8.20
2022-09-28T03:52:48.163Z,8.03
2022-09-28T03:55:14.793Z,8.27
2022-09-28T03:57:41.561Z,8.24
2022-09-28T04:00:08.676Z,8.29
2022-09-28T04:02:40.753Z,8.32
2022-09-28T04:05:08.151Z,8.18
2022-09-28T04:07:34.778Z,8.29
2022-09-28T04:10:01.575Z,8.27
2022-09-28T04:12:28.114Z,8.31
2022-09-28T04:14:54.698Z,8.26
2022-09-28T04:17:21.179Z,8.17
2022-09-28T04:19:48.214Z,8.07
2022-09-28T04:22:46.848Z,8.43
2022-09-28T04:25:13.292Z,8.56
2022-09-28T04:27:59.281Z,8.48
2022-09-28T04:30:25.756Z,8.60
2022-09-28T04:32:52.578Z,8.42
2022-09-28T04:35:19.405Z,8.33
2022-09-28T04:37:46.840Z,8.22
2022-09-28T04:40:13.426Z,8.23
2022-09-28T04:42:39.887Z,8.37
2022-09-28T04:45:06.699Z,8.27
2022-09-28T04:47:36.629Z,8.25
2022-09-28T04:50:29.895Z,8.24
2022-09-28T04:53:18.615Z,8.25
2022-09-28T04:55:54.530Z,8.23
2022-09-28T04:58:21.030Z,8.21
2022-09-28T05:00:47.510Z,8.46
2022-09-28T05:03:32.313Z,8.34
2022-09-28T05:06:16.925Z,8.45
2022-09-28T05:08:46.849Z,8.42
2022-09-28T05:11:14.819Z,8.27
2022-09-28T05:13:43.004Z,8.42
2022-09-28T05:16:10.239Z,8.17
2022-09-28T05:18:55.913Z,8.09
2022-09-28T05:21:24.783Z,8.17
2022-09-28T05:23:51.382Z,8.38
2022-09-28T05:26:18.662Z,8.43
2022-09-28T05:28:45.391Z,8.43
2022-09-28T05:31:44.070Z,8.40
2022-09-28T05:34:21.608Z,8.63
2022-09-28T05:36:48.506Z,8.59
2022-09-28T05:39:16.805Z,8.58
2022-09-28T05:41:44.654Z,8.70
2022-09-28T05:44:11.297Z,8.48
2022-09-28T05:46:37.902Z,8.44
2022-09-28T05:49:04.411Z,8.59
2022-09-28T05:51:30.860Z,8.69
2022-09-28T05:54:01.831Z,9.04
2022-09-28T05:56:31.728Z,8.97
2022-09-28T05:58:58.682Z,9.21
2022-09-28T06:01:28.347Z,8.99
2022-09-28T06:03:56.963Z,9.11
2022-09-28T06:06:23.512Z,9.06
2022-09-28T06:08:50.167Z,9.30
2022-09-28T06:11:35.187Z,9.31
2022-09-28T06:14:31.057Z,9.24
2022-09-28T06:16:57.618Z,9.50
2022-09-28T06:19:24.192Z,9.59
2022-09-28T06:22:16.500Z,9.99
2022-09-28T06:24:50.121Z,10.05
2022-09-28T06:27:16.786Z,10.18
2022-09-28T06:29:43.286Z,9.87
2022-09-28T06:32:09.770Z,10.02
2022-09-28T06:34:37.908Z,10.47
2022-09-28T06:37:04.685Z,10.39
2022-09-28T06:39:31.615Z,9.56
2022-09-28T06:41:58.761Z,9.95
2022-09-28T06:44:37.474Z,9.74
2022-09-28T06:47:22.468Z,10.07
2022-09-28T06:50:12.279Z,9.68
2022-09-28T06:52:58.126Z,10.06
2022-09-28T06:55:41.256Z,10.56
2022-09-28T06:58:10.585Z,10.84
2022-09-28T07:00:37.715Z,10.36
2022-09-28T07:03:05.639Z,10.19
2022-09-28T07:06:04.343Z,10.36
2022-09-28T07:08:33.633Z,10.74
2022-09-28T07:11:20.375Z,11.40
2022-09-28T07:14:02.901Z,11.53
2022-09-28T07:16:56.784Z,11.62
2022-09-28T07:19:19.260Z,12.10
2022-09-28T07:21:51.884Z,12.36
2022-09-28T07:24:23.634Z,12.93
2022-09-28T07:27:09.284Z,13.04
2022-09-28T07:29:56.008Z,12.83
2022-09-28T07:32:37.094Z,12.57
2022-09-28T07:35:23.047Z,13.20
2022-09-28T07:38:07.825Z,13.75
2022-09-28T07:40:54.104Z,13.99
2022-09-28T07:43:21.884Z,13.72
2022-09-28T07:45:52.528Z,14.32
2022-09-28T07:48:19.213Z,14.59
2022-09-28T07:51:08.862Z,14.24
2022-09-28T07:53:40.468Z,14.15
2022-09-28T07:56:20.137Z,13.75
2022-09-28T07:58:55.558Z,13.70
2022-09-28T08:01:22.065Z,14.03
2022-09-28T08:03:49.977Z,13.41
2022-09-28T08:06:17.142Z,13.44
2022-09-28T08:08:44.770Z,12.83
2022-09-28T08:11:17.803Z,13.09
2022-09-28T08:14:11.011Z,12.61
2022-09-28T08:17:04.630Z,13.36
2022-09-28T08:19:58.914Z,13.91
2022-09-28T08:22:25.398Z,13.41
2022-09-28T08:24:55.124Z,13.62
2022-09-28T08:27:21.631Z,13.75
2022-09-28T08:29:48.115Z,13.48
2022-09-28T08:32:33.743Z,13.64
2022-09-28T08:35:26.230Z,13.28
2022-09-28T08:38:13.645Z,14.00
2022-09-28T08:41:34.895Z,14.21
2022-09-28T08:44:11.608Z,14.11
2022-09-28T08:47:35.782Z,13.66
2022-09-28T08:50:19.666Z,14.17
2022-09-28T08:53:21.238Z,14.35
2022-09-28T08:56:32.533Z,13.87
2022-09-28T08:59:01.522Z,13.71
2022-09-28T09:01:38.876Z,13.60
2022-09-28T09:04:09.485Z,13.04
2022-09-28T09:07:18.761Z,13.43
2022-09-28T09:10:02.866Z,12.93
2022-09-28T09:12:48.588Z,13.57
2022-09-28T09:15:15.082Z,13.36
2022-09-28T09:17:50.427Z,13.49
2022-09-28T09:20:30.004Z,13.53
2022-09-28T09:23:10.570Z,13.68
2022-09-28T09:25:48.502Z,14.16
2022-09-28T09:28:35.280Z,14.35
2022-09-28T09:31:09.022Z,14.17
2022-09-28T09:34:02.278Z,14.23
2022-09-28T09:37:07.203Z,14.67
2022-09-28T09:39:52.075Z,14.48
2022-09-28T09:42:39.878Z,14.65
2022-09-28T09:45:24.953Z,14.33
2022-09-28T09:48:14.017Z,14.10
2022-09-28T09:50:44.477Z,14.10
2022-09-28T09:53:29.610Z,14.17
2022-09-28T09:55:59.865Z,14.42
2022-09-28T09:58:33.899Z,14.84
2022-09-28T10:01:14.560Z,14.56
2022-09-28T10:04:00.590Z,14.42
2022-09-28T10:06:31.547Z,14.97
2022-09-28T10:09:05.659Z,15.34
2022-09-28T10:11:41.159Z,15.11
2022-09-28T10:14:13.696Z,15.16
2022-09-28T10:16:49.569Z,15.11
2022-09-28T10:19:34.077Z,15.38
2022-09-28T10:22:22.831Z,14.62
2022-09-28T10:24:56.034Z,14.84
2022-09-28T10:27:24.731Z,14.75
2022-09-28T10:29:55.889Z,15.20
2022-09-28T10:32:27.345Z,15.34
2022-09-28T10:35:11.602Z,15.04
2022-09-28T10:37:54.259Z,14.68
2022-09-28T10:40:44.751Z,15.36
2022-09-28T10:43:24.861Z,15.03
2022-09-28T10:46:03.487Z,14.99
2022-09-28T10:48:33.146Z,14.91
2022-09-28T10:51:04.825Z,15.15
2022-09-28T10:53:33.727Z,15.13
2022-09-28T10:56:02.157Z,15.48
2022-09-28T10:58:32.026Z,15.12
2022-09-28T11:01:00.910Z,15.24
2022-09-28T11:03:28.950Z,15.08
2022-09-28T11:06:02.081Z,15.48
2022-09-28T11:08:31.042Z,15.82
2022-09-28T11:11:05.509Z,15.88
2022-09-28T11:13:38.091Z,15.93
2022-09-28T11:16:07.207Z,15.95
2022-09-28T11:18:36.207Z,16.50
2022-09-28T11:21:10.648Z,17.18
2022-09-28T11:23:38.615Z,17.08
2022-09-28T11:26:18.778Z,16.91
2022-09-28T11:28:50.467Z,17.08
2022-09-28T11:31:28.010Z,17.11
2022-09-28T11:34:07.099Z,16.99
2022-09-28T11:36:47.062Z,17.78
2022-09-28T11:39:22.318Z,17.72
2022-09-28T11:41:59.740Z,18.52
2022-09-28T11:44:37.518Z,19.12
2022-09-28T11:47:17.453Z,19.90
2022-09-28T11:49:50.743Z,19.16
2022-09-28T11:52:20.597Z,19.20
2022-09-28T11:54:57.134Z,19.32
2022-09-28T11:57:34.253Z,19.83
2022-09-28T12:00:10.273Z,19.79
2022-09-28T12:02:47.952Z,20.76
2022-09-28T12:05:21.263Z,20.72
2022-09-28T12:08:09.413Z,20.12
2022-09-28T12:10:58.418Z,20.01
2022-09-28T12:13:47.969Z,20.36
2022-09-28T12:19:18.497Z,21.39
2022-09-28T12:21:52.842Z,21.60
2022-09-28T12:24:34.829Z,21.06
2022-09-28T12:27:04.863Z,19.81
2022-09-28T12:29:50.319Z,18.98
2022-09-28T12:32:38.566Z,19.21
2022-09-28T12:35:19.724Z,19.63
2022-09-28T12:37:54.613Z,18.77
2022-09-28T12:40:27.339Z,18.37
2022-09-28T12:42:56.730Z,18.77
2022-09-28T12:46:09.978Z,18.24
2022-09-28T12:48:39.447Z,18.23
2022-09-28T12:51:29.177Z,18.39
2022-09-28T12:53:55.651Z,17.36
2022-09-28T12:56:39.839Z,17.84
2022-09-28T12:59:25.282Z,18.15
2022-09-28T13:02:09.708Z,17.96
2022-09-28T13:04:55.039Z,18.26
2022-09-28T13:07:24.338Z,17.73
2022-09-28T13:10:04.878Z,17.71
2022-09-28T13:12:40.631Z,17.25
2022-09-28T13:15:27.361Z,17.26
2022-09-28T13:17:56.595Z,17.28
2022-09-28T13:20:27.918Z,17.54
2022-09-28T13:23:00.363Z,17.74
2022-09-28T13:25:28.906Z,18.07
2022-09-28T13:27:58.433Z,17.78
2022-09-28T13:30:25.760Z,17.65
2022-09-28T13:32:54.373Z,17.73
2022-09-28T13:35:20.976Z,17.64
2022-09-28T13:37:47.798Z,17.62
2022-09-28T13:40:14.674Z,17.26
2022-09-28T13:42:53.344Z,17.12
2022-09-28T13:45:22.823Z,17.21
2022-09-28T13:47:52.452Z,17.53
2022-09-28T13:50:18.877Z,18.23
2022-09-28T13:52:47.937Z,17.70
2022-09-28T13:55:22.076Z,17.44
2022-09-28T13:57:52.345Z,17.04
2022-09-28T14:00:30.758Z,17.13
2022-09-28T14:03:03.305Z,16.90
2022-09-28T14:05:30.225Z,17.16
2022-09-28T14:08:09.790Z,16.84
2022-09-28T14:10:53.031Z,16.72
2022-09-28T14:13:38.362Z,16.70
2022-09-28T14:16:20.965Z,16.95
2022-09-28T14:19:08.167Z,16.89
2022-09-28T14:21:43.871Z,17.58
2022-09-28T14:24:33.550Z,17.45
2022-09-28T14:27:07.472Z,17.73
2022-09-28T14:29:35.407Z,17.80
2022-09-28T14:32:21.257Z,17.66
2022-09-28T14:34:54.752Z,17.79
2022-09-28T14:37:51.097Z,17.88
2022-09-28T14:40:36.152Z,17.62
2022-09-28T14:43:24.584Z,17.63
2022-09-28T14:46:14.597Z,17.62
2022-09-28T14:48:43.885Z,17.58
2022-09-28T14:51:32.919Z,17.63
2022-09-28T14:54:10.443Z,17.46
2022-09-28T14:56:43.616Z,17.46
2022-09-28T14:59:14.304Z,17.44
2022-09-28T15:01:43.076Z,17.37
2022-09-28T15:04:11.711Z,17.40
2022-09-28T15:06:48.499Z,17.26
2022-09-28T15:09:33.310Z,17.01
2022-09-28T15:12:00.712Z,16.90
2022-09-28T15:14:31.703Z,17.14
2022-09-28T15:17:08.542Z,17.12
2022-09-28T15:19:51.649Z,17.04
2022-09-28T15:22:18.807Z,16.95
2022-09-28T15:24:53.551Z,16.78
2022-09-28T15:27:20.007Z,16.89
2022-09-28T15:30:07.490Z,16.99
2022-09-28T15:32:33.929Z,16.92
2022-09-28T15:35:09.726Z,16.80
2022-09-28T15:37:40.378Z,16.75
2022-09-28T15:40:13.139Z,16.63
2022-09-28T15:42:39.704Z,16.67
2022-09-28T15:45:07.828Z,16.74
2022-09-28T15:47:35.203Z,16.72
2022-09-28T15:50:03.409Z,16.70
2022-09-28T15:52:30.077Z,16.74
2022-09-28T15:54:57.356Z,16.70
2022-09-28T15:57:39.985Z,16.65
2022-09-28T16:00:22.973Z,16.62
2022-09-28T16:03:00.813Z,16.62
2022-09-28T16:05:35.642Z,16.44
2022-09-28T16:08:03.439Z,16.45
2022-09-28T16:10:33.465Z,16.38
2022-09-28T16:13:26.334Z,16.03
2022-09-28T16:15:59.797Z,15.97
2022-09-28T16:18:27.090Z,16.13
2022-09-28T16:21:01.046Z,16.09
2022-09-28T16:23:33.100Z,16.22
2022-09-28T16:26:02.036Z,16.06
2022-09-28T16:28:34.926Z,16.03
2022-09-28T16:31:05.917Z,15.92
2022-09-28T16:33:48.428Z,15.99
2022-09-28T16:36:15.453Z,15.90
2022-09-28T16:38:45.376Z,15.90
2022-09-28T16:41:13.138Z,15.83
2022-09-28T16:43:40.485Z,15.74
2022-09-28T16:46:09.844Z,15.64
2022-09-28T16:48:39.512Z,15.72
2022-09-28T16:51:06.042Z,15.60
2022-09-28T16:53:51.210Z,15.58
2022-09-28T16:56:18.520Z,15.70
2022-09-28T16:58:48.040Z,15.67
2022-09-28T17:01:14.859Z,15.62
2022-09-28T17:03:46.926Z,15.66
2022-09-28T17:06:13.951Z,15.59
2022-09-28T17:08:40.410Z,15.46
2022-09-28T17:11:15.894Z,15.52
2022-09-28T17:13:45.136Z,15.46
2022-09-28T17:16:13.873Z,15.44
2022-09-28T17:18:40.793Z,15.51
2022-09-28T17:21:10.900Z,15.39
2022-09-28T17:23:37.519Z,15.33
2022-09-28T17:26:04.603Z,15.31
2022-09-28T17:28:35.302Z,15.43
2022-09-28T17:31:02.759Z,15.38
2022-09-28T17:33:29.749Z,15.35
2022-09-28T17:36:00.529Z,15.39
2022-09-28T17:38:27.595Z,15.34
2022-09-28T17:40:54.134Z,15.33
2022-09-28T17:43:22.139Z,15.42
2022-09-28T17:45:49.038Z,15.33
2022-09-28T17:48:16.549Z,15.36
2022-09-28T17:50:46.415Z,15.28
2022-09-28T17:53:13.526Z,15.18
2022-09-28T17:55:40.406Z,15.17
2022-09-28T17:58:22.777Z,15.28
2022-09-28T18:00:50.253Z,15.08
2022-09-28T18:03:17.877Z,14.97
2022-09-28T18:05:44.750Z,15.05
2022-09-28T18:08:13.217Z,15.17
2022-09-28T18:10:39.754Z,15.02
2022-09-28T18:13:06.230Z,14.96
2022-09-28T18:15:32.722Z,14.96
2022-09-28T18:17:59.176Z,14.86
2022-09-28T18:20:25.657Z,14.85
2022-09-28T18:22:52.079Z,14.88
2022-09-28T18:25:18.616Z,14.93
2022-09-28T18:27:45.106Z,14.91
2022-09-28T18:30:11.646Z,14.79
2022-09-28T18:32:38.615Z,14.71
2022-09-28T18:35:05.813Z,14.73
2022-09-28T18:37:36.127Z,14.82
2022-09-28T18:40:02.842Z,14.75
2022-09-28T18:42:29.270Z,14.65
2022-09-28T18:44:55.682Z,14.58
2022-09-28T18:47:22.098Z,14.71
2022-09-28T18:49:50.536Z,14.75
2022-09-28T18:52:16.953Z,14.46
2022-09-28T18:54:43.579Z,14.51
2022-09-28T18:57:10.001Z,14.35
2022-09-28T18:59:36.443Z,14.17
2022-09-28T19:02:03.117Z,14.05
2022-09-28T19:04:29.635Z,14.02
2022-09-28T19:06:56.070Z,13.90
2022-09-28T19:09:22.994Z,13.99
2022-09-28T19:11:49.498Z,14.11
2022-09-28T19:14:16.131Z,13.90
2022-09-28T19:16:44.224Z,13.86
2022-09-28T19:19:12.539Z,13.87
2022-09-28T19:21:40.006Z,13.84
2022-09-28T19:24:06.575Z,13.80
2022-09-28T19:26:33.321Z,13.85
2022-09-28T19:29:00.344Z,13.84
2022-09-28T19:31:27.034Z,13.96
2022-09-28T19:33:53.448Z,13.96
2022-09-28T19:36:23.431Z,13.97
2022-09-28T19:38:50.352Z,14.02
2022-09-28T19:41:39.546Z,13.96
2022-09-28T19:44:10.992Z,13.98
2022-09-28T19:46:38.853Z,13.97
2022-09-28T19:49:12.672Z,13.85
2022-09-28T19:51:51.426Z,13.74
2022-09-28T19:54:33.100Z,13.79
2022-09-28T19:57:07.438Z,13.75
2022-09-28T19:59:35.544Z,13.89
2022-09-28T20:02:03.150Z,13.94
2022-09-28T20:04:29.972Z,13.85
2022-09-28T20:06:56.488Z,13.91
2022-09-28T20:09:23.066Z,13.95
2022-09-28T20:11:51.706Z,14.11
2022-09-28T20:14:23.397Z,14.14
2022-09-28T20:16:54.122Z,14.13
2022-09-28T20:19:21.825Z,14.08
2022-09-28T20:21:48.422Z,14.06
2022-09-28T20:24:16.194Z,14.12
2022-09-28T20:26:43.343Z,14.17
2022-09-28T20:29:10.607Z,14.10
2022-09-28T20:31:37.228Z,14.02
2022-09-28T20:34:05.626Z,14.06
2022-09-28T20:36:32.186Z,14.21
2022-09-28T20:39:01.780Z,14.17
2022-09-28T20:41:28.890Z,14.10
2022-09-28T20:43:56.537Z,14.13
2022-09-28T20:46:23.499Z,14.15
2022-09-28T20:48:50.293Z,14.29
2022-09-28T20:51:17.948Z,14.24
2022-09-28T20:53:47.739Z,14.30
2022-09-28T20:56:17.642Z,14.14
2022-09-28T20:58:44.131Z,14.18
2022-09-28T21:01:17.261Z,14.22
2022-09-28T21:03:48.114Z,14.24
2022-09-28T21:06:15.446Z,14.10
2022-09-28T21:08:42.094Z,14.02
2022-09-28T21:11:08.502Z,14.04
2022-09-28T21:13:34.950Z,14.02
2022-09-28T21:16:02.037Z,14.07
2022-09-28T21:18:28.635Z,14.16
2022-09-28T21:20:55.078Z,14.12
2022-09-28T21:23:24.733Z,14.10
2022-09-28T21:26:00.748Z,14.17
2022-09-28T21:28:27.229Z,14.20
2022-09-28T21:30:53.881Z,14.22
2022-09-28T21:33:20.502Z,14.17
2022-09-28T21:35:47.092Z,14.21
2022-09-28T21:38:13.852Z,14.38
2022-09-28T21:40:40.336Z,14.28
2022-09-28T21:43:06.892Z,14.29
2022-09-28T21:45:33.382Z,14.29
2022-09-28T21:47:59.907Z,14.31
2022-09-28T21:50:26.713Z,14.44
2022-09-28T21:52:54.020Z,14.42
2022-09-28T21:55:21.772Z,14.32
2022-09-28T21:57:50.518Z,14.37
2022-09-28T22:00:18.734Z,14.35
2022-09-28T22:02:45.336Z,14.38
2022-09-28T22:05:12.587Z,14.30
2022-09-28T22:07:40.167Z,14.42
2022-09-28T22:10:07.280Z,14.51
2022-09-28T22:12:33.761Z,14.45
2022-09-28T22:15:00.193Z,14.46
2022-09-28T22:17:29.921Z,14.51
2022-09-28T22:19:56.980Z,14.42
2022-09-28T22:22:27.231Z,14.40
2022-09-28T22:24:56.159Z,14.37
2022-09-28T22:27:22.786Z,14.51
2022-09-28T22:29:50.981Z,14.50
2022-09-28T22:32:17.426Z,14.74
2022-09-28T22:34:43.949Z,15.11
2022-09-28T22:37:10.510Z,14.90
2022-09-28T22:39:37.970Z,14.49
2022-09-28T22:42:04.619Z,14.35
2022-09-28T22:44:31.136Z,14.34
2022-09-28T22:46:58.056Z,14.34
2022-09-28T22:49:24.506Z,14.49
2022-09-28T22:51:50.903Z,14.49
2022-09-28T22:54:17.517Z,14.39
2022-09-28T22:56:44.151Z,14.36
2022-09-28T22:59:11.527Z,14.42
2022-09-28T23:01:38.555Z,14.40
2022-09-28T23:04:05.145Z,14.55
2022-09-28T23:06:33.026Z,14.47
2022-09-28T23:08:59.699Z,14.44
2022-09-28T23:11:26.398Z,14.53
2022-09-28T23:13:53.637Z,14.49
2022-09-28T23:16:20.687Z,14.49
2022-09-28T23:18:49.074Z,14.43
2022-09-28T23:21:16.737Z,14.53
2022-09-28T23:23:43.985Z,14.47
2022-09-28T23:26:14.441Z,14.51
2022-09-28T23:28:41.056Z,14.50
2022-09-28T23:31:11.544Z,14.38
2022-09-28T23:33:38.089Z,14.46
2022-09-28T23:36:04.650Z,14.46
2022-09-28T23:38:31.559Z,14.41
2022-09-28T23:40:58.188Z,14.47
2022-09-28T23:43:24.655Z,14.36
2022-09-28T23:45:51.501Z,14.46
2022-09-28T23:48:18.226Z,14.45
2022-09-28T23:50:44.761Z,14.49
2022-09-28T23:53:13.575Z,14.58
2022-09-28T23:55:40.249Z,14.63
2022-09-28T23:58:06.671Z,14.60
